sensor_id;sensor_type;location;lat;lon;timestamp;temperature;humidity
73360;DHT22;63092;43.582;19.528;2023-06-10T00:02:07;18.50;99.90
73360;DHT22;63092;43.582;19.528;2023-06-10T00:04:34;18.60;99.90
73360;DHT22;63092;43.582;19.528;2023-06-10T00:07:02;18.60;99.90
73360;DHT22;63092;43.582;19.528;2023-06-10T00:09:29;18.50;99.90
73360;DHT22;63092;43.582;19.528;2023-06-10T00:11:55;18.50;99.90
73360;DHT22;63092;43.582;19.528;2023-06-10T00:14:20;18.40;99.90
73360;DHT22;63092;43.582;19.528;2023-06-10T00:16:46;18.50;99.90
73360;DHT22;63092;43.582;19.528;2023-06-10T00:19:12;18.50;99.90
73360;DHT22;63092;43.582;19.528;2023-06-10T00:21:39;18.60;99.90
73360;DHT22;63092;43.582;19.528;2023-06-10T00:24:10;18.60;99.90
73360;DHT22;63092;43.582;19.528;2023-06-10T00:26:40;18.60;99.90
73360;DHT22;63092;43.582;19.528;2023-06-10T00:29:07;18.60;99.90
73360;DHT22;63092;43.582;19.528;2023-06-10T00:31:34;18.60;99.90
73360;DHT22;63092;43.582;19.528;2023-06-10T00:34:01;18.50;99.90
73360;DHT22;63092;43.582;19.528;2023-06-10T00:36:28;18.60;99.90
73360;DHT22;63092;43.582;19.528;2023-06-10T00:38:53;18.40;99.90
73360;DHT22;63092;43.582;19.528;2023-06-10T00:41:19;18.30;99.90
73360;DHT22;63092;43.582;19.528;2023-06-10T00:43:45;18.30;99.90
73360;DHT22;63092;43.582;19.528;2023-06-10T00:46:11;18.40;99.90
73360;DHT22;63092;43.582;19.528;2023-06-10T00:48:38;18.40;99.90
73360;DHT22;63092;43.582;19.528;2023-06-10T00:51:05;18.40;99.90
73360;DHT22;63092;43.582;19.528;2023-06-10T00:53:32;18.50;99.90
73360;DHT22;63092;43.582;19.528;2023-06-10T00:55:59;18.60;99.90
73360;DHT22;63092;43.582;19.528;2023-06-10T00:58:25;18.60;99.90
73360;DHT22;63092;43.582;19.528;2023-06-10T01:00:51;18.70;99.90
73360;DHT22;63092;43.582;19.528;2023-06-10T01:03:17;18.70;99.90
73360;DHT22;63092;43.582;19.528;2023-06-10T01:05:44;18.70;99.90
73360;DHT22;63092;43.582;19.528;2023-06-10T01:08:37;18.70;99.90
73360;DHT22;63092;43.582;19.528;2023-06-10T01:11:10;18.70;99.90
73360;DHT22;63092;43.582;19.528;2023-06-10T01:13:40;18.80;99.90
73360;DHT22;63092;43.582;19.528;2023-06-10T01:16:07;18.80;99.90
73360;DHT22;63092;43.582;19.528;2023-06-10T01:18:33;18.80;99.90
73360;DHT22;63092;43.582;19.528;2023-06-10T01:20:59;18.80;99.90
73360;DHT22;63092;43.582;19.528;2023-06-10T01:23:24;18.80;99.90
73360;DHT22;63092;43.582;19.528;2023-06-10T01:25:59;18.50;99.90
73360;DHT22;63092;43.582;19.528;2023-06-10T01:28:49;18.60;99.90
73360;DHT22;63092;43.582;19.528;2023-06-10T01:31:56;18.70;99.90
73360;DHT22;63092;43.582;19.528;2023-06-10T01:34:27;18.70;99.90
73360;DHT22;63092;43.582;19.528;2023-06-10T01:36:56;18.80;99.90
73360;DHT22;63092;43.582;19.528;2023-06-10T01:39:24;18.80;99.90
73360;DHT22;63092;43.582;19.528;2023-06-10T01:41:54;18.90;99.90
73360;DHT22;63092;43.582;19.528;2023-06-10T01:44:22;18.90;99.90
73360;DHT22;63092;43.582;19.528;2023-06-10T01:46:48;18.90;99.90
73360;DHT22;63092;43.582;19.528;2023-06-10T01:49:14;18.80;99.90
73360;DHT22;63092;43.582;19.528;2023-06-10T01:51:40;18.90;99.90
73360;DHT22;63092;43.582;19.528;2023-06-10T01:54:06;18.90;99.90
73360;DHT22;63092;43.582;19.528;2023-06-10T01:56:32;18.90;99.90
73360;DHT22;63092;43.582;19.528;2023-06-10T01:58:58;18.90;99.90
73360;DHT22;63092;43.582;19.528;2023-06-10T02:01:25;18.90;99.90
73360;DHT22;63092;43.582;19.528;2023-06-10T02:03:51;18.70;99.90
73360;DHT22;63092;43.582;19.528;2023-06-10T02:06:17;18.80;99.90
73360;DHT22;63092;43.582;19.528;2023-06-10T02:08:43;18.90;99.90
73360;DHT22;63092;43.582;19.528;2023-06-10T02:11:08;18.90;99.90
73360;DHT22;63092;43.582;19.528;2023-06-10T02:13:34;18.80;99.90
73360;DHT22;63092;43.582;19.528;2023-06-10T02:16:00;18.80;99.90
73360;DHT22;63092;43.582;19.528;2023-06-10T02:18:27;18.80;99.90
73360;DHT22;63092;43.582;19.528;2023-06-10T02:20:53;18.80;99.90
73360;DHT22;63092;43.582;19.528;2023-06-10T02:23:19;18.80;99.90
73360;DHT22;63092;43.582;19.528;2023-06-10T02:25:45;18.80;99.90
73360;DHT22;63092;43.582;19.528;2023-06-10T02:28:12;18.70;99.90
73360;DHT22;63092;43.582;19.528;2023-06-10T02:30:40;18.60;99.90
73360;DHT22;63092;43.582;19.528;2023-06-10T02:33:07;18.70;99.90
73360;DHT22;63092;43.582;19.528;2023-06-10T02:35:38;18.70;99.90
73360;DHT22;63092;43.582;19.528;2023-06-10T02:38:04;18.80;99.90
73360;DHT22;63092;43.582;19.528;2023-06-10T02:40:29;18.70;99.90
73360;DHT22;63092;43.582;19.528;2023-06-10T02:42:55;18.70;99.90
73360;DHT22;63092;43.582;19.528;2023-06-10T02:45:21;18.70;99.90
73360;DHT22;63092;43.582;19.528;2023-06-10T02:47:47;18.60;99.90
73360;DHT22;63092;43.582;19.528;2023-06-10T02:50:13;18.60;99.90
73360;DHT22;63092;43.582;19.528;2023-06-10T02:52:39;18.60;99.90
73360;DHT22;63092;43.582;19.528;2023-06-10T02:55:04;18.60;99.90
73360;DHT22;63092;43.582;19.528;2023-06-10T02:57:30;18.50;99.90
73360;DHT22;63092;43.582;19.528;2023-06-10T02:59:56;18.40;99.90
73360;DHT22;63092;43.582;19.528;2023-06-10T03:02:24;18.60;99.90
73360;DHT22;63092;43.582;19.528;2023-06-10T03:04:55;18.40;99.90
73360;DHT22;63092;43.582;19.528;2023-06-10T03:07:21;18.50;99.90
73360;DHT22;63092;43.582;19.528;2023-06-10T03:09:47;18.50;99.90
73360;DHT22;63092;43.582;19.528;2023-06-10T03:12:12;18.60;99.90
73360;DHT22;63092;43.582;19.528;2023-06-10T03:14:38;18.60;99.90
73360;DHT22;63092;43.582;19.528;2023-06-10T03:17:04;18.50;99.90
73360;DHT22;63092;43.582;19.528;2023-06-10T03:19:30;18.60;99.90
73360;DHT22;63092;43.582;19.528;2023-06-10T03:22:08;18.50;99.90
73360;DHT22;63092;43.582;19.528;2023-06-10T03:24:33;18.40;99.90
73360;DHT22;63092;43.582;19.528;2023-06-10T03:27:01;18.40;99.90
73360;DHT22;63092;43.582;19.528;2023-06-10T03:29:27;18.40;99.90
73360;DHT22;63092;43.582;19.528;2023-06-10T03:31:53;18.40;99.90
73360;DHT22;63092;43.582;19.528;2023-06-10T03:34:18;18.40;99.90
73360;DHT22;63092;43.582;19.528;2023-06-10T03:36:45;18.40;99.90
73360;DHT22;63092;43.582;19.528;2023-06-10T03:39:11;18.30;99.90
73360;DHT22;63092;43.582;19.528;2023-06-10T03:41:37;18.30;99.90
73360;DHT22;63092;43.582;19.528;2023-06-10T03:44:03;18.30;99.90
73360;DHT22;63092;43.582;19.528;2023-06-10T03:46:29;18.30;99.90
73360;DHT22;63092;43.582;19.528;2023-06-10T03:48:55;18.30;99.90
73360;DHT22;63092;43.582;19.528;2023-06-10T03:51:21;18.40;99.90
73360;DHT22;63092;43.582;19.528;2023-06-10T03:53:47;18.50;99.90
73360;DHT22;63092;43.582;19.528;2023-06-10T03:56:12;18.60;99.90
73360;DHT22;63092;43.582;19.528;2023-06-10T03:58:38;18.60;99.90
73360;DHT22;63092;43.582;19.528;2023-06-10T04:01:04;18.60;99.90
73360;DHT22;63092;43.582;19.528;2023-06-10T04:03:30;18.60;99.90
73360;DHT22;63092;43.582;19.528;2023-06-10T04:05:55;18.70;99.90
73360;DHT22;63092;43.582;19.528;2023-06-10T04:08:21;18.70;99.90
73360;DHT22;63092;43.582;19.528;2023-06-10T04:10:47;18.70;99.90
73360;DHT22;63092;43.582;19.528;2023-06-10T04:13:13;18.70;99.90
73360;DHT22;63092;43.582;19.528;2023-06-10T04:15:40;18.80;99.90
73360;DHT22;63092;43.582;19.528;2023-06-10T04:18:06;18.70;99.90
73360;DHT22;63092;43.582;19.528;2023-06-10T04:20:32;18.70;99.90
73360;DHT22;63092;43.582;19.528;2023-06-10T04:22:58;18.70;99.90
73360;DHT22;63092;43.582;19.528;2023-06-10T04:25:25;18.70;99.90
73360;DHT22;63092;43.582;19.528;2023-06-10T04:27:51;18.70;99.90
73360;DHT22;63092;43.582;19.528;2023-06-10T04:30:17;18.40;99.90
73360;DHT22;63092;43.582;19.528;2023-06-10T04:32:43;18.50;99.90
73360;DHT22;63092;43.582;19.528;2023-06-10T04:35:11;18.50;99.90
73360;DHT22;63092;43.582;19.528;2023-06-10T04:37:38;18.50;99.90
73360;DHT22;63092;43.582;19.528;2023-06-10T04:40:04;18.50;99.90
73360;DHT22;63092;43.582;19.528;2023-06-10T04:42:31;18.40;99.90
73360;DHT22;63092;43.582;19.528;2023-06-10T04:44:56;18.50;99.90
73360;DHT22;63092;43.582;19.528;2023-06-10T04:47:23;18.40;99.90
73360;DHT22;63092;43.582;19.528;2023-06-10T04:49:48;18.50;99.90
73360;DHT22;63092;43.582;19.528;2023-06-10T04:52:14;18.60;99.90
73360;DHT22;63092;43.582;19.528;2023-06-10T04:54:40;18.60;99.90
73360;DHT22;63092;43.582;19.528;2023-06-10T04:57:06;18.70;99.90
73360;DHT22;63092;43.582;19.528;2023-06-10T04:59:33;18.70;99.90
73360;DHT22;63092;43.582;19.528;2023-06-10T05:02:03;18.80;99.90
73360;DHT22;63092;43.582;19.528;2023-06-10T05:04:28;18.70;99.90
73360;DHT22;63092;43.582;19.528;2023-06-10T05:06:55;18.80;99.90
73360;DHT22;63092;43.582;19.528;2023-06-10T05:09:21;18.70;99.90
73360;DHT22;63092;43.582;19.528;2023-06-10T05:11:46;18.80;99.90
73360;DHT22;63092;43.582;19.528;2023-06-10T05:14:12;18.80;99.90
73360;DHT22;63092;43.582;19.528;2023-06-10T05:16:38;18.80;99.90
73360;DHT22;63092;43.582;19.528;2023-06-10T05:19:04;18.70;99.90
73360;DHT22;63092;43.582;19.528;2023-06-10T05:21:30;18.80;99.90
73360;DHT22;63092;43.582;19.528;2023-06-10T05:23:56;18.90;99.90
73360;DHT22;63092;43.582;19.528;2023-06-10T05:26:22;18.90;99.90
73360;DHT22;63092;43.582;19.528;2023-06-10T05:28:48;18.90;99.90
73360;DHT22;63092;43.582;19.528;2023-06-10T05:31:13;18.90;99.90
73360;DHT22;63092;43.582;19.528;2023-06-10T05:33:39;18.80;99.90
73360;DHT22;63092;43.582;19.528;2023-06-10T05:36:05;18.70;99.90
73360;DHT22;63092;43.582;19.528;2023-06-10T05:38:31;18.60;99.90
73360;DHT22;63092;43.582;19.528;2023-06-10T05:40:57;18.50;99.90
73360;DHT22;63092;43.582;19.528;2023-06-10T05:43:24;18.60;99.90
73360;DHT22;63092;43.582;19.528;2023-06-10T05:45:50;18.60;99.90
73360;DHT22;63092;43.582;19.528;2023-06-10T05:48:15;18.70;99.90
73360;DHT22;63092;43.582;19.528;2023-06-10T05:50:42;18.70;99.90
73360;DHT22;63092;43.582;19.528;2023-06-10T05:53:10;18.80;99.90
73360;DHT22;63092;43.582;19.528;2023-06-10T05:55:42;18.70;99.90
73360;DHT22;63092;43.582;19.528;2023-06-10T05:58:08;18.70;99.90
73360;DHT22;63092;43.582;19.528;2023-06-10T06:00:33;18.60;99.90
73360;DHT22;63092;43.582;19.528;2023-06-10T06:02:59;18.70;99.90
73360;DHT22;63092;43.582;19.528;2023-06-10T06:05:25;18.60;99.90
73360;DHT22;63092;43.582;19.528;2023-06-10T06:07:51;18.70;99.90
73360;DHT22;63092;43.582;19.528;2023-06-10T06:10:18;18.60;99.90
73360;DHT22;63092;43.582;19.528;2023-06-10T06:12:44;18.70;99.90
73360;DHT22;63092;43.582;19.528;2023-06-10T06:15:10;18.70;99.90
73360;DHT22;63092;43.582;19.528;2023-06-10T06:17:36;18.80;99.90
73360;DHT22;63092;43.582;19.528;2023-06-10T06:20:03;18.80;99.90
73360;DHT22;63092;43.582;19.528;2023-06-10T06:22:29;18.90;99.90
73360;DHT22;63092;43.582;19.528;2023-06-10T06:24:55;19.00;99.90
73360;DHT22;63092;43.582;19.528;2023-06-10T06:27:23;19.00;99.90
73360;DHT22;63092;43.582;19.528;2023-06-10T06:29:49;19.00;99.90
73360;DHT22;63092;43.582;19.528;2023-06-10T06:32:16;18.90;99.90
73360;DHT22;63092;43.582;19.528;2023-06-10T06:34:41;18.90;99.90
73360;DHT22;63092;43.582;19.528;2023-06-10T06:37:07;19.00;99.90
73360;DHT22;63092;43.582;19.528;2023-06-10T06:39:33;19.00;99.90
73360;DHT22;63092;43.582;19.528;2023-06-10T06:41:59;19.20;99.90
73360;DHT22;63092;43.582;19.528;2023-06-10T06:44:24;19.20;99.90
73360;DHT22;63092;43.582;19.528;2023-06-10T06:46:50;19.40;99.90
73360;DHT22;63092;43.582;19.528;2023-06-10T06:49:16;19.40;99.90
73360;DHT22;63092;43.582;19.528;2023-06-10T06:51:41;19.30;99.90
73360;DHT22;63092;43.582;19.528;2023-06-10T06:54:07;19.30;99.90
73360;DHT22;63092;43.582;19.528;2023-06-10T06:56:33;19.30;99.90
73360;DHT22;63092;43.582;19.528;2023-06-10T06:58:58;19.50;99.90
73360;DHT22;63092;43.582;19.528;2023-06-10T07:01:24;19.50;99.90
73360;DHT22;63092;43.582;19.528;2023-06-10T07:03:50;19.60;99.90
73360;DHT22;63092;43.582;19.528;2023-06-10T07:06:16;19.70;99.90
73360;DHT22;63092;43.582;19.528;2023-06-10T07:08:41;19.70;99.90
73360;DHT22;63092;43.582;19.528;2023-06-10T07:11:07;19.60;99.90
73360;DHT22;63092;43.582;19.528;2023-06-10T07:13:33;19.70;99.90
73360;DHT22;63092;43.582;19.528;2023-06-10T07:15:59;19.80;99.90
73360;DHT22;63092;43.582;19.528;2023-06-10T07:18:24;19.60;99.90
73360;DHT22;63092;43.582;19.528;2023-06-10T07:20:50;19.60;99.90
73360;DHT22;63092;43.582;19.528;2023-06-10T07:23:16;19.80;99.90
73360;DHT22;63092;43.582;19.528;2023-06-10T07:25:41;19.90;99.90
73360;DHT22;63092;43.582;19.528;2023-06-10T07:28:07;19.80;99.90
73360;DHT22;63092;43.582;19.528;2023-06-10T07:30:33;20.00;99.90
73360;DHT22;63092;43.582;19.528;2023-06-10T07:32:59;19.90;99.90
73360;DHT22;63092;43.582;19.528;2023-06-10T07:35:24;20.10;99.90
73360;DHT22;63092;43.582;19.528;2023-06-10T07:37:50;20.10;99.90
73360;DHT22;63092;43.582;19.528;2023-06-10T07:40:16;20.20;99.90
73360;DHT22;63092;43.582;19.528;2023-06-10T07:42:42;20.20;99.90
73360;DHT22;63092;43.582;19.528;2023-06-10T07:45:08;20.00;99.90
73360;DHT22;63092;43.582;19.528;2023-06-10T07:47:34;20.00;99.90
73360;DHT22;63092;43.582;19.528;2023-06-10T07:50:00;20.10;99.90
73360;DHT22;63092;43.582;19.528;2023-06-10T07:52:26;20.10;99.90
73360;DHT22;63092;43.582;19.528;2023-06-10T07:54:54;19.90;99.90
73360;DHT22;63092;43.582;19.528;2023-06-10T07:57:19;20.00;99.90
73360;DHT22;63092;43.582;19.528;2023-06-10T07:59:45;20.10;99.90
73360;DHT22;63092;43.582;19.528;2023-06-10T08:02:11;20.10;99.90
73360;DHT22;63092;43.582;19.528;2023-06-10T08:04:37;20.30;99.90
73360;DHT22;63092;43.582;19.528;2023-06-10T08:07:03;20.50;99.90
73360;DHT22;63092;43.582;19.528;2023-06-10T08:09:28;20.60;99.90
73360;DHT22;63092;43.582;19.528;2023-06-10T08:11:54;20.80;99.90
73360;DHT22;63092;43.582;19.528;2023-06-10T08:14:21;20.90;99.90
73360;DHT22;63092;43.582;19.528;2023-06-10T08:16:47;21.00;99.90
73360;DHT22;63092;43.582;19.528;2023-06-10T08:19:12;21.00;99.90
73360;DHT22;63092;43.582;19.528;2023-06-10T08:21:38;21.00;99.90
73360;DHT22;63092;43.582;19.528;2023-06-10T08:24:06;21.20;99.90
73360;DHT22;63092;43.582;19.528;2023-06-10T08:26:32;21.00;99.90
73360;DHT22;63092;43.582;19.528;2023-06-10T08:28:57;21.10;99.90
73360;DHT22;63092;43.582;19.528;2023-06-10T08:31:23;21.00;99.90
73360;DHT22;63092;43.582;19.528;2023-06-10T08:33:49;21.00;99.90
73360;DHT22;63092;43.582;19.528;2023-06-10T08:36:15;21.00;99.90
73360;DHT22;63092;43.582;19.528;2023-06-10T08:38:41;21.20;99.90
73360;DHT22;63092;43.582;19.528;2023-06-10T08:41:07;21.20;99.90
73360;DHT22;63092;43.582;19.528;2023-06-10T08:43:39;21.30;99.90
73360;DHT22;63092;43.582;19.528;2023-06-10T08:46:09;21.40;99.90
73360;DHT22;63092;43.582;19.528;2023-06-10T08:48:39;21.60;99.90
73360;DHT22;63092;43.582;19.528;2023-06-10T08:51:08;21.60;99.90
73360;DHT22;63092;43.582;19.528;2023-06-10T08:53:37;21.70;99.90
73360;DHT22;63092;43.582;19.528;2023-06-10T08:56:04;21.70;99.90
73360;DHT22;63092;43.582;19.528;2023-06-10T08:58:32;21.80;99.90
73360;DHT22;63092;43.582;19.528;2023-06-10T09:01:11;21.90;99.90
73360;DHT22;63092;43.582;19.528;2023-06-10T09:03:37;22.20;99.90
73360;DHT22;63092;43.582;19.528;2023-06-10T09:06:05;22.10;99.90
73360;DHT22;63092;43.582;19.528;2023-06-10T09:08:33;22.20;99.90
73360;DHT22;63092;43.582;19.528;2023-06-10T09:10:59;22.30;99.90
73360;DHT22;63092;43.582;19.528;2023-06-10T09:13:25;22.40;99.90
73360;DHT22;63092;43.582;19.528;2023-06-10T09:15:51;22.40;99.90
73360;DHT22;63092;43.582;19.528;2023-06-10T09:18:17;22.40;99.90
73360;DHT22;63092;43.582;19.528;2023-06-10T09:20:43;22.50;99.90
73360;DHT22;63092;43.582;19.528;2023-06-10T09:23:09;22.60;99.90
73360;DHT22;63092;43.582;19.528;2023-06-10T09:25:38;22.70;99.90
73360;DHT22;63092;43.582;19.528;2023-06-10T09:28:04;22.70;99.90
73360;DHT22;63092;43.582;19.528;2023-06-10T09:30:32;22.80;99.90
73360;DHT22;63092;43.582;19.528;2023-06-10T09:33:00;22.90;99.90
73360;DHT22;63092;43.582;19.528;2023-06-10T09:35:29;22.60;99.90
73360;DHT22;63092;43.582;19.528;2023-06-10T09:37:57;22.60;99.90
73360;DHT22;63092;43.582;19.528;2023-06-10T09:40:23;22.80;99.90
73360;DHT22;63092;43.582;19.528;2023-06-10T09:43:06;22.80;99.90
73360;DHT22;63092;43.582;19.528;2023-06-10T09:45:32;22.90;99.90
73360;DHT22;63092;43.582;19.528;2023-06-10T09:47:59;22.90;99.90
73360;DHT22;63092;43.582;19.528;2023-06-10T09:50:25;23.00;99.90
73360;DHT22;63092;43.582;19.528;2023-06-10T09:52:51;23.00;99.90
73360;DHT22;63092;43.582;19.528;2023-06-10T09:55:17;23.00;99.90
73360;DHT22;63092;43.582;19.528;2023-06-10T09:57:43;23.10;99.90
73360;DHT22;63092;43.582;19.528;2023-06-10T10:00:13;23.00;99.90
73360;DHT22;63092;43.582;19.528;2023-06-10T10:02:50;23.10;99.90
73360;DHT22;63092;43.582;19.528;2023-06-10T10:05:17;23.20;99.90
73360;DHT22;63092;43.582;19.528;2023-06-10T10:07:44;23.00;99.90
73360;DHT22;63092;43.582;19.528;2023-06-10T10:10:11;23.30;99.90
73360;DHT22;63092;43.582;19.528;2023-06-10T10:12:40;23.30;99.90
73360;DHT22;63092;43.582;19.528;2023-06-10T10:15:08;23.30;99.90
73360;DHT22;63092;43.582;19.528;2023-06-10T10:17:39;23.40;99.90
73360;DHT22;63092;43.582;19.528;2023-06-10T10:20:08;23.20;99.90
73360;DHT22;63092;43.582;19.528;2023-06-10T10:22:41;23.30;99.90
73360;DHT22;63092;43.582;19.528;2023-06-10T10:25:16;23.40;99.90
73360;DHT22;63092;43.582;19.528;2023-06-10T10:27:47;23.40;99.90
73360;DHT22;63092;43.582;19.528;2023-06-10T10:30:14;23.30;99.90
73360;DHT22;63092;43.582;19.528;2023-06-10T10:35:21;23.50;99.90
73360;DHT22;63092;43.582;19.528;2023-06-10T10:37:49;23.40;99.90
73360;DHT22;63092;43.582;19.528;2023-06-10T10:40:16;23.50;99.90
73360;DHT22;63092;43.582;19.528;2023-06-10T10:42:43;23.60;99.90
73360;DHT22;63092;43.582;19.528;2023-06-10T10:45:10;23.70;99.90
73360;DHT22;63092;43.582;19.528;2023-06-10T10:47:36;23.90;99.90
73360;DHT22;63092;43.582;19.528;2023-06-10T10:50:14;23.80;99.90
73360;DHT22;63092;43.582;19.528;2023-06-10T10:53:01;23.90;99.80
73360;DHT22;63092;43.582;19.528;2023-06-10T10:55:27;23.90;99.90
73360;DHT22;63092;43.582;19.528;2023-06-10T10:57:55;24.00;99.20
73360;DHT22;63092;43.582;19.528;2023-06-10T11:00:33;24.00;99.90
73360;DHT22;63092;43.582;19.528;2023-06-10T11:05:36;24.30;99.30
73360;DHT22;63092;43.582;19.528;2023-06-10T11:08:04;24.40;99.10
73360;DHT22;63092;43.582;19.528;2023-06-10T11:10:31;24.50;97.80
73360;DHT22;63092;43.582;19.528;2023-06-10T11:12:58;24.60;96.90
73360;DHT22;63092;43.582;19.528;2023-06-10T11:15:26;24.80;97.50
73360;DHT22;63092;43.582;19.528;2023-06-10T11:28:39;25.10;95.70
73360;DHT22;63092;43.582;19.528;2023-06-10T11:31:05;25.40;95.10
73360;DHT22;63092;43.582;19.528;2023-06-10T11:33:31;25.40;93.80
73360;DHT22;63092;43.582;19.528;2023-06-10T11:38:26;25.60;94.60
73360;DHT22;63092;43.582;19.528;2023-06-10T11:40:53;25.30;94.20
73360;DHT22;63092;43.582;19.528;2023-06-10T11:43:20;25.30;94.30
73360;DHT22;63092;43.582;19.528;2023-06-10T11:45:46;25.40;94.20
73360;DHT22;63092;43.582;19.528;2023-06-10T11:48:12;25.50;94.50
73360;DHT22;63092;43.582;19.528;2023-06-10T11:53:08;25.70;94.70
73360;DHT22;63092;43.582;19.528;2023-06-10T11:58:21;25.80;92.90
73360;DHT22;63092;43.582;19.528;2023-06-10T12:00:47;25.90;93.70
73360;DHT22;63092;43.582;19.528;2023-06-10T12:03:13;25.90;93.70
73360;DHT22;63092;43.582;19.528;2023-06-10T12:05:39;26.00;93.10
73360;DHT22;63092;43.582;19.528;2023-06-10T12:08:11;25.80;93.60
73360;DHT22;63092;43.582;19.528;2023-06-10T12:10:43;25.70;93.60
73360;DHT22;63092;43.582;19.528;2023-06-10T12:13:09;25.60;93.00
73360;DHT22;63092;43.582;19.528;2023-06-10T12:15:35;25.50;95.30
73360;DHT22;63092;43.582;19.528;2023-06-10T12:18:02;25.30;94.00
73360;DHT22;63092;43.582;19.528;2023-06-10T12:20:29;25.20;94.50
73360;DHT22;63092;43.582;19.528;2023-06-10T12:22:55;25.20;95.10
73360;DHT22;63092;43.582;19.528;2023-06-10T12:25:28;25.10;97.30
73360;DHT22;63092;43.582;19.528;2023-06-10T12:27:57;24.90;99.90
73360;DHT22;63092;43.582;19.528;2023-06-10T12:30:24;24.50;99.90
73360;DHT22;63092;43.582;19.528;2023-06-10T12:32:51;24.10;99.90
73360;DHT22;63092;43.582;19.528;2023-06-10T12:35:22;23.60;99.90
73360;DHT22;63092;43.582;19.528;2023-06-10T12:37:59;23.50;99.90
73360;DHT22;63092;43.582;19.528;2023-06-10T12:40:31;23.20;99.90
73360;DHT22;63092;43.582;19.528;2023-06-10T12:42:58;23.20;99.90
73360;DHT22;63092;43.582;19.528;2023-06-10T12:45:31;23.10;99.90
73360;DHT22;63092;43.582;19.528;2023-06-10T12:48:11;23.20;99.90
73360;DHT22;63092;43.582;19.528;2023-06-10T12:50:39;23.40;99.90
73360;DHT22;63092;43.582;19.528;2023-06-10T12:53:05;23.60;99.90
73360;DHT22;63092;43.582;19.528;2023-06-10T12:55:32;23.80;99.90
73360;DHT22;63092;43.582;19.528;2023-06-10T12:57:59;24.10;99.90
73360;DHT22;63092;43.582;19.528;2023-06-10T13:00:26;24.20;99.90
73360;DHT22;63092;43.582;19.528;2023-06-10T13:02:54;24.40;99.90
73360;DHT22;63092;43.582;19.528;2023-06-10T13:05:20;24.60;99.90
73360;DHT22;63092;43.582;19.528;2023-06-10T13:10:13;25.00;99.90
73360;DHT22;63092;43.582;19.528;2023-06-10T13:12:40;25.00;99.90
73360;DHT22;63092;43.582;19.528;2023-06-10T13:15:06;25.10;99.90
73360;DHT22;63092;43.582;19.528;2023-06-10T13:17:32;25.30;99.80
73360;DHT22;63092;43.582;19.528;2023-06-10T13:20:06;25.60;98.40
73360;DHT22;63092;43.582;19.528;2023-06-10T13:22:33;25.60;98.80
73360;DHT22;63092;43.582;19.528;2023-06-10T13:25:00;25.70;98.70
73360;DHT22;63092;43.582;19.528;2023-06-10T13:27:26;25.80;95.70
73360;DHT22;63092;43.582;19.528;2023-06-10T13:29:53;26.00;97.00
73360;DHT22;63092;43.582;19.528;2023-06-10T13:34:44;25.80;98.10
73360;DHT22;63092;43.582;19.528;2023-06-10T13:37:11;25.80;98.40
73360;DHT22;63092;43.582;19.528;2023-06-10T13:39:38;25.90;97.80
73360;DHT22;63092;43.582;19.528;2023-06-10T13:42:05;25.80;97.20
73360;DHT22;63092;43.582;19.528;2023-06-10T13:44:31;25.80;96.40
73360;DHT22;63092;43.582;19.528;2023-06-10T13:46:59;25.90;95.70
73360;DHT22;63092;43.582;19.528;2023-06-10T13:49:25;25.60;95.10
73360;DHT22;63092;43.582;19.528;2023-06-10T13:51:50;25.30;95.50
73360;DHT22;63092;43.582;19.528;2023-06-10T13:54:16;25.20;95.30
73360;DHT22;63092;43.582;19.528;2023-06-10T13:56:42;25.10;96.70
73360;DHT22;63092;43.582;19.528;2023-06-10T13:59:08;25.00;96.20
73360;DHT22;63092;43.582;19.528;2023-06-10T14:01:33;24.90;95.70
73360;DHT22;63092;43.582;19.528;2023-06-10T14:04:00;24.60;96.70
73360;DHT22;63092;43.582;19.528;2023-06-10T14:06:26;24.50;96.40
73360;DHT22;63092;43.582;19.528;2023-06-10T14:08:52;24.50;95.80
73360;DHT22;63092;43.582;19.528;2023-06-10T14:11:20;24.50;95.60
73360;DHT22;63092;43.582;19.528;2023-06-10T14:13:46;24.50;97.10
73360;DHT22;63092;43.582;19.528;2023-06-10T14:16:12;24.40;98.70
73360;DHT22;63092;43.582;19.528;2023-06-10T14:18:38;24.00;99.90
73360;DHT22;63092;43.582;19.528;2023-06-10T14:21:04;23.80;99.90
73360;DHT22;63092;43.582;19.528;2023-06-10T14:23:30;23.30;99.90
73360;DHT22;63092;43.582;19.528;2023-06-10T14:25:55;23.10;99.90
73360;DHT22;63092;43.582;19.528;2023-06-10T14:28:21;23.20;99.90
73360;DHT22;63092;43.582;19.528;2023-06-10T14:30:47;23.20;99.90
73360;DHT22;63092;43.582;19.528;2023-06-10T14:33:12;23.00;99.90
73360;DHT22;63092;43.582;19.528;2023-06-10T14:35:38;22.80;99.90
73360;DHT22;63092;43.582;19.528;2023-06-10T14:38:04;22.70;99.90
73360;DHT22;63092;43.582;19.528;2023-06-10T14:40:30;22.80;99.90
73360;DHT22;63092;43.582;19.528;2023-06-10T14:42:57;22.70;99.90
73360;DHT22;63092;43.582;19.528;2023-06-10T14:45:23;22.70;99.90
73360;DHT22;63092;43.582;19.528;2023-06-10T14:47:50;22.70;99.90
73360;DHT22;63092;43.582;19.528;2023-06-10T14:50:16;22.60;99.90
73360;DHT22;63092;43.582;19.528;2023-06-10T14:52:42;22.60;99.90
73360;DHT22;63092;43.582;19.528;2023-06-10T14:55:09;22.70;99.90
73360;DHT22;63092;43.582;19.528;2023-06-10T14:57:34;22.80;99.90
73360;DHT22;63092;43.582;19.528;2023-06-10T15:00:00;22.90;99.90
73360;DHT22;63092;43.582;19.528;2023-06-10T15:02:26;22.90;99.90
73360;DHT22;63092;43.582;19.528;2023-06-10T15:04:52;23.00;99.90
73360;DHT22;63092;43.582;19.528;2023-06-10T15:07:18;23.20;99.90
73360;DHT22;63092;43.582;19.528;2023-06-10T15:09:44;23.10;99.90
73360;DHT22;63092;43.582;19.528;2023-06-10T15:12:09;23.00;99.90
73360;DHT22;63092;43.582;19.528;2023-06-10T15:14:36;23.00;99.90
73360;DHT22;63092;43.582;19.528;2023-06-10T15:17:02;23.10;99.90
73360;DHT22;63092;43.582;19.528;2023-06-10T15:19:28;23.10;99.90
73360;DHT22;63092;43.582;19.528;2023-06-10T15:21:54;23.10;99.90
73360;DHT22;63092;43.582;19.528;2023-06-10T15:24:19;23.20;99.90
73360;DHT22;63092;43.582;19.528;2023-06-10T15:26:45;23.20;99.90
73360;DHT22;63092;43.582;19.528;2023-06-10T15:29:11;23.20;99.90
73360;DHT22;63092;43.582;19.528;2023-06-10T15:31:37;23.10;99.90
73360;DHT22;63092;43.582;19.528;2023-06-10T15:34:03;23.20;99.90
73360;DHT22;63092;43.582;19.528;2023-06-10T15:36:29;23.30;99.90
73360;DHT22;63092;43.582;19.528;2023-06-10T15:39:02;23.30;99.90
73360;DHT22;63092;43.582;19.528;2023-06-10T15:41:28;23.20;99.90
73360;DHT22;63092;43.582;19.528;2023-06-10T15:43:54;23.20;99.90